Time;durP1;ratioP1;P1;durP2;ratioP2;P2;SDS_P1;SDS_P2;PMS_P1;PMS_P2;Temp;Humidity;BMP_temperature;BMP_pressure;BME280_temperature;BME280_humidity;BME280_pressure;Samples;Min_cycle;Max_cycle;Signal;HPM_P1;HPM_P2
2023/06/24 00:02:23;;;;;;;7.18;3.00;;;;;;;;;;5069124;28;20024;-86
2023/06/24 00:04:50;;;;;;;3.20;1.95;;;;;;;;;;5062551;28;20045;-90
2023/06/24 00:07:16;;;;;;;7.53;2.00;;;;;;;;;;5061359;28;20021;-88
2023/06/24 00:09:41;;;;;;;2.78;1.98;;;;;;;;;;5063072;28;20101;-88
2023/06/24 00:12:07;;;;;;;2.92;1.88;;;;;;;;;;5064815;28;20025;-88
2023/06/24 00:14:33;;;;;;;1.75;1.50;;;;;;;;;;5058876;28;20021;-87
2023/06/24 00:16:58;;;;;;;3.25;2.13;;;;;;;;;;5062061;28;20032;-89
2023/06/24 00:19:26;;;;;;;3.70;2.38;;;;;;;;;;5060864;28;20025;-89
2023/06/24 00:21:53;;;;;;;3.00;2.08;;;;;;;;;;5065877;28;20020;-89
2023/06/24 00:24:25;;;;;;;3.42;2.17;;;;;;;;;;5067850;28;20048;-86
2023/06/24 00:26:54;;;;;;;2.65;1.77;;;;;;;;;;5069400;28;20070;-87
2023/06/24 00:29:22;;;;;;;3.40;2.33;;;;;;;;;;5067277;28;20537;-89
2023/06/24 00:31:47;;;;;;;3.95;2.17;;;;;;;;;;5067859;28;20044;-84
2023/06/24 00:34:13;;;;;;;3.90;2.40;;;;;;;;;;5067829;28;20036;-87
2023/06/24 00:36:39;;;;;;;3.05;2.03;;;;;;;;;;5068218;28;20025;-86
2023/06/24 00:39:05;;;;;;;2.78;1.95;;;;;;;;;;5065628;28;20031;-84
2023/06/24 00:41:33;;;;;;;2.70;2.15;;;;;;;;;;5069454;28;20025;-87
2023/06/24 00:43:59;;;;;;;3.63;2.33;;;;;;;;;;5069482;28;20069;-86
2023/06/24 00:46:25;;;;;;;7.20;2.63;;;;;;;;;;5066681;28;20116;-87
2023/06/24 00:49:02;;;;;;;3.83;2.50;;;;;;;;;;5066129;28;20124;-88
2023/06/24 00:51:30;;;;;;;3.47;2.13;;;;;;;;;;5065978;28;20059;-88
2023/06/24 00:53:57;;;;;;;4.60;2.33;;;;;;;;;;5068008;28;20031;-85
2023/06/24 00:56:30;;;;;;;3.55;2.30;;;;;;;;;;5070503;28;20428;-86
2023/06/24 00:59:01;;;;;;;3.60;2.60;;;;;;;;;;5071624;28;20025;-89
2023/06/24 01:01:31;;;;;;;4.45;3.03;;;;;;;;;;5067242;28;20106;-89
2023/06/24 01:03:57;;;;;;;2.45;1.98;;;;;;;;;;5093787;28;20040;-89
2023/06/24 01:06:23;;;;;;;3.08;2.17;;;;;;;;;;5067759;28;20170;-85
2023/06/24 01:08:50;;;;;;;5.18;2.38;;;;;;;;;;5067484;28;20028;-85
2023/06/24 01:11:17;;;;;;;3.97;2.22;;;;;;;;;;5068252;28;20032;-87
2023/06/24 01:13:43;;;;;;;3.70;2.38;;;;;;;;;;5072944;28;20069;-85
2023/06/24 01:16:18;;;;;;;2.78;2.05;;;;;;;;;;5073594;28;20119;-86
2023/06/24 01:18:48;;;;;;;3.35;2.08;;;;;;;;;;5066944;28;20031;-89
2023/06/24 01:21:40;;;;;;;;;;;;;;;;;;5063219;28;20032;-86
2023/06/24 01:24:35;;;;;;;4.30;2.35;;;;;;;;;;5063769;28;19935;-87
2023/06/24 01:27:56;;;;;;;2.83;1.92;;;;;;;;;;5068544;28;20025;-87
2023/06/24 01:31:10;;;;;;;4.07;2.42;;;;;;;;;;5043843;28;20025;-87
2023/06/24 01:33:42;;;;;;;4.95;2.47;;;;;;;;;;4996377;28;20120;-88
2023/06/24 01:36:11;;;;;;;3.83;2.30;;;;;;;;;;5064614;28;20036;-89
2023/06/24 01:38:46;;;;;;;5.18;2.90;;;;;;;;;;5069432;28;20528;-88
2023/06/24 01:41:15;;;;;;;2.13;1.92;;;;;;;;;;5067537;28;20024;-89
2023/06/24 01:43:43;;;;;;;3.77;2.07;;;;;;;;;;5065054;28;20032;-87
2023/06/24 01:46:11;;;;;;;4.22;2.47;;;;;;;;;;5063550;28;20276;-87
2023/06/24 01:48:39;;;;;;;4.82;2.53;;;;;;;;;;5064592;28;20074;-85
2023/06/24 01:51:17;;;;;;;3.53;2.15;;;;;;;;;;5064611;28;20032;-89
2023/06/24 01:53:48;;;;;;;6.15;2.55;;;;;;;;;;5063920;28;20034;-87
2023/06/24 01:56:15;;;;;;;8.48;2.88;;;;;;;;;;5069536;28;20032;-87
2023/06/24 01:58:43;;;;;;;3.22;2.08;;;;;;;;;;5068657;28;20035;-88
2023/06/24 02:01:10;;;;;;;4.95;2.90;;;;;;;;;;5067090;28;20028;-91
2023/06/24 02:03:36;;;;;;;3.75;2.17;;;;;;;;;;5063578;28;20036;-88
2023/06/24 02:06:04;;;;;;;2.85;1.92;;;;;;;;;;5066995;28;20048;-88
2023/06/24 02:08:34;;;;;;;5.25;2.25;;;;;;;;;;5068690;28;20559;-89
2023/06/24 02:11:01;;;;;;;3.28;2.28;;;;;;;;;;5069180;28;20094;-89
2023/06/24 02:13:31;;;;;;;4.22;2.38;;;;;;;;;;5068616;28;20450;-88
2023/06/24 02:15:59;;;;;;;8.85;2.97;;;;;;;;;;5066030;28;20068;-90
2023/06/24 02:18:27;;;;;;;2.88;1.80;;;;;;;;;;5065855;28;20534;-87
2023/06/24 02:20:53;;;;;;;4.75;2.20;;;;;;;;;;5065056;28;20369;-88
2023/06/24 02:23:20;;;;;;;2.65;1.73;;;;;;;;;;5064499;28;20042;-87
2023/06/24 02:25:47;;;;;;;1.92;1.42;;;;;;;;;;5063641;28;20020;-87
2023/06/24 02:28:14;;;;;;;2.78;1.60;;;;;;;;;;5067066;28;20017;-88
2023/06/24 02:30:43;;;;;;;4.70;3.30;;;;;;;;;;5068658;28;20275;-86
2023/06/24 02:33:09;;;;;;;2.95;1.45;;;;;;;;;;5063135;28;20020;-89
2023/06/24 02:35:34;;;;;;;2.92;2.45;;;;;;;;;;5063924;28;20100;-89
2023/06/24 02:38:00;;;;;;;2.20;1.95;;;;;;;;;;5066596;28;20162;-88
2023/06/24 02:40:27;;;;;;;3.35;2.45;;;;;;;;;;5064801;28;20024;-88
2023/06/24 02:42:52;;;;;;;9.57;2.08;;;;;;;;;;5064585;28;20516;-88
2023/06/24 02:45:18;;;;;;;3.97;2.42;;;;;;;;;;5064342;28;20106;-88
2023/06/24 02:47:46;;;;;;;2.90;2.42;;;;;;;;;;5063859;28;20029;-86
2023/06/24 02:50:12;;;;;;;5.32;2.65;;;;;;;;;;5058540;28;20415;-88
2023/06/24 02:52:38;;;;;;;4.25;2.80;;;;;;;;;;5063751;28;20033;-86
2023/06/24 02:55:05;;;;;;;4.13;2.20;;;;;;;;;;5065242;28;21141;-89
2023/06/24 02:57:32;;;;;;;2.70;1.73;;;;;;;;;;5065542;28;20021;-88
2023/06/24 02:59:57;;;;;;;1.83;1.55;;;;;;;;;;5062111;28;20021;-88
2023/06/24 03:02:24;;;;;;;4.30;2.83;;;;;;;;;;5064930;28;20024;-87
2023/06/24 03:04:51;;;;;;;3.30;2.55;;;;;;;;;;5065048;28;20033;-88
2023/06/24 03:07:20;;;;;;;4.65;2.95;;;;;;;;;;5062586;28;20032;-88
2023/06/24 03:09:49;;;;;;;5.57;2.55;;;;;;;;;;5068693;28;20499;-89
2023/06/24 03:12:14;;;;;;;4.88;2.33;;;;;;;;;;5062781;28;20021;-87
2023/06/24 03:14:40;;;;;;;3.28;2.42;;;;;;;;;;5069400;28;20091;-88
2023/06/24 03:17:06;;;;;;;3.83;2.35;;;;;;;;;;5066201;28;20562;-87
2023/06/24 03:19:31;;;;;;;5.30;3.00;;;;;;;;;;5061104;28;20086;-88
2023/06/24 03:21:57;;;;;;;4.88;2.70;;;;;;;;;;5065356;28;20024;-89
2023/06/24 03:24:22;;;;;;;3.83;3.00;;;;;;;;;;5064753;28;20063;-87
2023/06/24 03:26:48;;;;;;;3.88;2.25;;;;;;;;;;5066431;28;20028;-86
2023/06/24 03:29:13;;;;;;;2.92;1.90;;;;;;;;;;5063551;28;20044;-89
2023/06/24 03:31:43;;;;;;;2.75;1.67;;;;;;;;;;5067328;28;20103;-91
2023/06/24 03:34:10;;;;;;;2.40;1.67;;;;;;;;;;5066904;28;20111;-90
2023/06/24 03:36:38;;;;;;;4.57;2.70;;;;;;;;;;5069441;28;20535;-89
2023/06/24 03:39:07;;;;;;;4.65;2.67;;;;;;;;;;5066154;28;20029;-90
2023/06/24 03:41:32;;;;;;;4.88;2.80;;;;;;;;;;5071444;28;20480;-87
2023/06/24 03:43:57;;;;;;;2.33;2.03;;;;;;;;;;5065960;28;20034;-87
2023/06/24 03:46:23;;;;;;;3.05;2.22;;;;;;;;;;5067311;28;20530;-87
2023/06/24 03:48:50;;;;;;;4.85;2.63;;;;;;;;;;5064116;28;20037;-87
2023/06/24 03:51:15;;;;;;;2.58;1.73;;;;;;;;;;5071594;28;20020;-88
2023/06/24 03:53:41;;;;;;;3.65;2.67;;;;;;;;;;5064458;28;20021;-86
2023/06/24 03:56:06;;;;;;;3.08;2.60;;;;;;;;;;5087467;28;20032;-89
2023/06/24 03:58:32;;;;;;;4.03;2.63;;;;;;;;;;5065861;28;20493;-88
2023/06/24 04:01:00;;;;;;;3.55;2.35;;;;;;;;;;5068433;28;20029;-89
2023/06/24 04:03:25;;;;;;;4.80;3.10;;;;;;;;;;5092321;28;20222;-89
2023/06/24 04:05:53;;;;;;;4.03;2.30;;;;;;;;;;5069329;28;20163;-88
2023/06/24 04:08:19;;;;;;;3.47;2.97;;;;;;;;;;5069045;28;20480;-88
2023/06/24 04:10:44;;;;;;;5.28;2.67;;;;;;;;;;5075189;28;20036;-86
2023/06/24 04:13:10;;;;;;;5.60;3.67;;;;;;;;;;5069544;28;20031;-88
2023/06/24 04:15:35;;;;;;;2.95;2.17;;;;;;;;;;5069411;28;20180;-87
2023/06/24 04:18:01;;;;;;;2.28;2.00;;;;;;;;;;5072149;28;20020;-89
2023/06/24 04:20:26;;;;;;;5.50;3.13;;;;;;;;;;5065943;28;20111;-86
2023/06/24 04:22:52;;;;;;;3.22;2.58;;;;;;;;;;5069292;28;20021;-87
2023/06/24 04:25:17;;;;;;;3.05;1.98;;;;;;;;;;5061292;28;20074;-89
2023/06/24 04:27:43;;;;;;;5.03;2.83;;;;;;;;;;5065366;28;20033;-86
2023/06/24 04:30:09;;;;;;;4.22;2.90;;;;;;;;;;5068753;28;20029;-87
2023/06/24 04:32:34;;;;;;;3.17;2.70;;;;;;;;;;5066394;28;20033;-87
2023/06/24 04:35:00;;;;;;;3.75;2.85;;;;;;;;;;5071079;28;20035;-88
2023/06/24 04:37:26;;;;;;;5.00;2.47;;;;;;;;;;5067664;28;20017;-86
2023/06/24 04:39:51;;;;;;;3.50;2.55;;;;;;;;;;5067888;28;20495;-86
2023/06/24 04:42:17;;;;;;;4.32;2.58;;;;;;;;;;5065810;28;20032;-85
2023/06/24 04:44:42;;;;;;;6.10;2.63;;;;;;;;;;5063121;28;20028;-86
2023/06/24 04:47:08;;;;;;;4.20;2.67;;;;;;;;;;5061100;28;20025;-88
2023/06/24 04:49:33;;;;;;;3.35;2.58;;;;;;;;;;5067267;28;20036;-87
2023/06/24 04:52:02;;;;;;;3.88;2.08;;;;;;;;;;5063335;28;20384;-85
2023/06/24 04:54:28;;;;;;;6.00;3.00;;;;;;;;;;5068749;28;20111;-86
2023/06/24 04:56:55;;;;;;;4.13;2.80;;;;;;;;;;5067110;28;20155;-86
2023/06/24 04:59:23;;;;;;;3.75;2.60;;;;;;;;;;5068887;28;20031;-85
2023/06/24 05:01:49;;;;;;;4.20;2.40;;;;;;;;;;5064070;28;20025;-86
2023/06/24 05:04:14;;;;;;;5.07;2.78;;;;;;;;;;5066768;28;20027;-87
2023/06/24 05:06:40;;;;;;;2.65;1.75;;;;;;;;;;5074011;28;20033;-84
2023/06/24 05:09:05;;;;;;;2.60;2.03;;;;;;;;;;5061801;28;20024;-84
2023/06/24 05:11:31;;;;;;;2.30;2.10;;;;;;;;;;5066085;28;20024;-86
2023/06/24 05:13:57;;;;;;;3.20;2.17;;;;;;;;;;5067073;28;20037;-88
2023/06/24 05:16:24;;;;;;;3.85;2.53;;;;;;;;;;5070202;28;20041;-86
2023/06/24 05:18:49;;;;;;;4.45;2.83;;;;;;;;;;5063229;28;20415;-86
2023/06/24 05:21:15;;;;;;;3.92;2.75;;;;;;;;;;5066452;28;20086;-86
2023/06/24 05:23:41;;;;;;;3.90;2.17;;;;;;;;;;5063804;28;20528;-85
2023/06/24 05:26:06;;;;;;;4.22;2.80;;;;;;;;;;5067357;28;20032;-85
2023/06/24 05:28:31;;;;;;;3.47;2.60;;;;;;;;;;5066882;28;20108;-85
2023/06/24 05:30:57;;;;;;;3.63;2.42;;;;;;;;;;5055438;28;20099;-84
2023/06/24 05:33:23;;;;;;;3.03;2.30;;;;;;;;;;5062389;28;20442;-85
2023/06/24 05:35:49;;;;;;;4.03;1.90;;;;;;;;;;5060969;28;20362;-83
2023/06/24 05:38:15;;;;;;;3.28;2.03;;;;;;;;;;5067757;28;20020;-86
2023/06/24 05:40:40;;;;;;;4.95;2.42;;;;;;;;;;5070055;28;20028;-85
2023/06/24 05:43:05;;;;;;;3.97;2.42;;;;;;;;;;5063307;28;20025;-84
2023/06/24 05:45:31;;;;;;;3.85;2.30;;;;;;;;;;5061789;28;20109;-83
2023/06/24 05:47:56;;;;;;;2.72;2.42;;;;;;;;;;5067910;28;20028;-84
2023/06/24 05:50:22;;;;;;;3.30;2.35;;;;;;;;;;5066784;28;20016;-86
2023/06/24 05:52:47;;;;;;;3.72;2.20;;;;;;;;;;5065525;28;20040;-84
2023/06/24 05:55:13;;;;;;;2.90;2.30;;;;;;;;;;5063029;28;20020;-84
2023/06/24 05:57:39;;;;;;;3.28;2.45;;;;;;;;;;5067742;28;20365;-85
2023/06/24 06:00:06;;;;;;;2.97;2.00;;;;;;;;;;5071793;28;20035;-85
2023/06/24 06:02:31;;;;;;;3.25;2.50;;;;;;;;;;5071164;28;20035;-86
2023/06/24 06:04:58;;;;;;;3.80;2.25;;;;;;;;;;5084740;28;20024;-85
2023/06/24 06:07:23;;;;;;;4.50;2.90;;;;;;;;;;5063873;28;20372;-84
2023/06/24 06:09:48;;;;;;;3.28;2.28;;;;;;;;;;5071942;28;20024;-84
2023/06/24 06:12:14;;;;;;;3.72;2.90;;;;;;;;;;5063682;28;20480;-88
2023/06/24 06:14:39;;;;;;;2.85;2.13;;;;;;;;;;5069471;28;20020;-85
2023/06/24 06:17:05;;;;;;;3.42;2.13;;;;;;;;;;5060775;28;20048;-85
2023/06/24 06:19:30;;;;;;;3.47;2.53;;;;;;;;;;5064028;28;20476;-85
2023/06/24 06:21:56;;;;;;;3.38;2.40;;;;;;;;;;5060039;28;20470;-84
2023/06/24 06:24:21;;;;;;;2.83;1.80;;;;;;;;;;5060498;28;20368;-85
2023/06/24 06:26:47;;;;;;;4.57;2.58;;;;;;;;;;5068402;28;20457;-87
2023/06/24 06:29:12;;;;;;;4.03;2.95;;;;;;;;;;5067301;28;20452;-87
2023/06/24 06:31:37;;;;;;;2.72;2.17;;;;;;;;;;5065403;28;20545;-80
2023/06/24 06:34:03;;;;;;;5.55;2.25;;;;;;;;;;5063291;28;20036;-80
2023/06/24 06:36:29;;;;;;;3.15;2.20;;;;;;;;;;5068894;28;20061;-82
2023/06/24 06:38:54;;;;;;;3.58;2.45;;;;;;;;;;5064065;28;20165;-80
2023/06/24 06:41:26;;;;;;;4.85;2.03;;;;;;;;;;5067808;28;20035;-82
2023/06/24 06:43:52;;;;;;;3.67;2.42;;;;;;;;;;5077777;28;20031;-80
2023/06/24 06:46:17;;;;;;;3.00;2.53;;;;;;;;;;5064526;28;20025;-80
2023/06/24 06:48:43;;;;;;;4.22;3.10;;;;;;;;;;5067476;28;20023;-79
2023/06/24 06:51:08;;;;;;;2.30;1.98;;;;;;;;;;5056908;28;20135;-80
2023/06/24 06:53:34;;;;;;;2.65;2.08;;;;;;;;;;5052282;28;20024;-81
2023/06/24 06:55:59;;;;;;;2.55;1.83;;;;;;;;;;5061026;28;20025;-81
2023/06/24 06:58:25;;;;;;;5.07;2.88;;;;;;;;;;5063867;28;20430;-78
2023/06/24 07:00:50;;;;;;;3.45;2.65;;;;;;;;;;5059575;28;20028;-84
2023/06/24 07:03:16;;;;;;;3.45;2.20;;;;;;;;;;5069173;28;20380;-78
2023/06/24 07:05:41;;;;;;;4.68;2.78;;;;;;;;;;5064405;28;20051;-80
2023/06/24 07:08:07;;;;;;;3.00;1.95;;;;;;;;;;5062528;28;20074;-81
2023/06/24 07:10:32;;;;;;;4.35;2.97;;;;;;;;;;5065712;28;20028;-83
2023/06/24 07:12:58;;;;;;;3.35;2.78;;;;;;;;;;5067978;28;20028;-79
2023/06/24 07:15:25;;;;;;;3.60;2.80;;;;;;;;;;5067059;28;20021;-80
2023/06/24 07:17:52;;;;;;;5.22;2.92;;;;;;;;;;5065590;28;20040;-84
2023/06/24 07:20:17;;;;;;;4.57;3.03;;;;;;;;;;5060520;28;20028;-83
2023/06/24 07:22:43;;;;;;;4.53;3.05;;;;;;;;;;5064212;28;20021;-80
2023/06/24 07:25:09;;;;;;;2.72;2.30;;;;;;;;;;5061258;28;20044;-82
2023/06/24 07:27:34;;;;;;;3.40;2.70;;;;;;;;;;5059988;28;20087;-82
2023/06/24 07:30:00;;;;;;;3.80;2.58;;;;;;;;;;5061903;28;20029;-81
2023/06/24 07:32:25;;;;;;;3.50;3.15;;;;;;;;;;5066851;28;20039;-84
2023/06/24 07:34:51;;;;;;;3.60;2.50;;;;;;;;;;5070267;28;20408;-81
2023/06/24 07:37:16;;;;;;;6.05;2.35;;;;;;;;;;5063509;28;20031;-82
2023/06/24 07:39:42;;;;;;;6.05;4.07;;;;;;;;;;5068643;28;20075;-84
2023/06/24 07:42:07;;;;;;;3.92;2.55;;;;;;;;;;5070656;28;20078;-80
2023/06/24 07:44:33;;;;;;;6.13;2.90;;;;;;;;;;5067287;28;20024;-82
2023/06/24 07:46:58;;;;;;;4.63;3.03;;;;;;;;;;5066821;28;20016;-84
2023/06/24 07:49:24;;;;;;;3.63;2.65;;;;;;;;;;5059697;28;20086;-83
2023/06/24 07:51:49;;;;;;;7.80;3.85;;;;;;;;;;5065015;28;20029;-84
2023/06/24 07:54:15;;;;;;;3.95;2.83;;;;;;;;;;5069135;28;20434;-84
2023/06/24 07:56:40;;;;;;;4.20;2.58;;;;;;;;;;5067564;28;20037;-85
2023/06/24 07:59:06;;;;;;;4.45;3.33;;;;;;;;;;5066507;28;20017;-85
2023/06/24 08:01:31;;;;;;;4.68;2.90;;;;;;;;;;5067752;28;20024;-85
2023/06/24 08:03:57;;;;;;;4.55;2.95;;;;;;;;;;5087249;28;20057;-84
2023/06/24 08:06:22;;;;;;;7.68;3.75;;;;;;;;;;5063802;28;20029;-83
2023/06/24 08:08:48;;;;;;;4.82;3.28;;;;;;;;;;5060309;28;20048;-84
2023/06/24 08:11:13;;;;;;;3.58;2.65;;;;;;;;;;5060554;28;20822;-84
2023/06/24 08:13:39;;;;;;;4.07;2.80;;;;;;;;;;5071186;28;20476;-87
2023/06/24 08:16:05;;;;;;;4.07;2.85;;;;;;;;;;5067623;28;20041;-85
2023/06/24 08:18:30;;;;;;;4.45;2.60;;;;;;;;;;5065126;28;20041;-88
2023/06/24 08:20:56;;;;;;;5.47;3.08;;;;;;;;;;5084232;28;20020;-85
2023/06/24 08:23:21;;;;;;;4.40;3.00;;;;;;;;;;5066090;28;20047;-86
2023/06/24 08:25:47;;;;;;;3.70;2.55;;;;;;;;;;5069629;28;20036;-86
2023/06/24 08:28:12;;;;;;;3.50;2.65;;;;;;;;;;5068335;28;20527;-87
2023/06/24 08:30:38;;;;;;;3.33;2.95;;;;;;;;;;5066826;28;20044;-87
2023/06/24 08:33:03;;;;;;;4.07;2.25;;;;;;;;;;5065569;28;20078;-88
2023/06/24 08:35:28;;;;;;;3.15;2.25;;;;;;;;;;5066335;28;20524;-85
2023/06/24 08:37:54;;;;;;;4.43;2.97;;;;;;;;;;5065588;28;20085;-86
2023/06/24 08:40:19;;;;;;;4.38;2.95;;;;;;;;;;5073499;28;20028;-84
2023/06/24 08:42:45;;;;;;;4.22;3.25;;;;;;;;;;5070861;28;20028;-86
2023/06/24 08:45:10;;;;;;;3.88;2.70;;;;;;;;;;5070025;28;20036;-85
2023/06/24 08:47:36;;;;;;;3.35;2.67;;;;;;;;;;5071198;28;20054;-85
2023/06/24 08:50:05;;;;;;;4.50;2.92;;;;;;;;;;5064689;28;20033;-85
2023/06/24 08:52:34;;;;;;;4.57;3.22;;;;;;;;;;5064296;28;20023;-87
2023/06/24 08:55:01;;;;;;;5.07;3.15;;;;;;;;;;5084711;28;20510;-85
2023/06/24 08:57:27;;;;;;;3.47;2.78;;;;;;;;;;5064323;28;20043;-87
2023/06/24 08:59:53;;;;;;;3.30;2.80;;;;;;;;;;5072814;28;20024;-86
2023/06/24 09:02:19;;;;;;;7.00;3.10;;;;;;;;;;5068336;28;20031;-85
2023/06/24 09:04:44;;;;;;;4.72;3.17;;;;;;;;;;5069648;28;20025;-86
2023/06/24 09:07:10;;;;;;;9.43;3.55;;;;;;;;;;5068823;28;20024;-85
2023/06/24 09:09:44;;;;;;;3.13;2.33;;;;;;;;;;5069158;28;20024;-89
2023/06/24 09:12:13;;;;;;;3.60;2.72;;;;;;;;;;5068833;28;20072;-90
2023/06/24 09:14:40;;;;;;;3.50;2.70;;;;;;;;;;5064310;28;20024;-86
2023/06/24 09:17:06;;;;;;;4.55;3.17;;;;;;;;;;5067360;28;20744;-86
2023/06/24 09:19:36;;;;;;;4.53;2.67;;;;;;;;;;5067931;28;20055;-87
2023/06/24 09:22:03;;;;;;;4.03;2.50;;;;;;;;;;5069485;28;20064;-87
2023/06/24 09:24:36;;;;;;;4.10;2.85;;;;;;;;;;5065584;28;20086;-85
2023/06/24 09:27:03;;;;;;;3.65;2.80;;;;;;;;;;5064992;28;20021;-84
2023/06/24 09:29:32;;;;;;;3.35;2.15;;;;;;;;;;5068837;28;20024;-85
2023/06/24 09:31:59;;;;;;;3.88;2.95;;;;;;;;;;5068285;28;20095;-85
2023/06/24 09:34:26;;;;;;;2.83;2.25;;;;;;;;;;5062584;28;20369;-86
2023/06/24 09:36:56;;;;;;;3.83;2.20;;;;;;;;;;5065885;28;20029;-84
2023/06/24 09:39:28;;;;;;;3.45;2.58;;;;;;;;;;5065539;28;20087;-85
2023/06/24 09:41:54;;;;;;;3.75;2.28;;;;;;;;;;5085790;28;20033;-84
2023/06/24 09:44:20;;;;;;;3.35;2.67;;;;;;;;;;5074633;28;20545;-86
2023/06/24 09:46:46;;;;;;;4.35;2.75;;;;;;;;;;5063157;28;20024;-86
2023/06/24 09:49:12;;;;;;;3.28;2.72;;;;;;;;;;5069945;28;20030;-87
2023/06/24 09:51:39;;;;;;;4.07;2.90;;;;;;;;;;5086664;28;20032;-88
2023/06/24 09:54:09;;;;;;;5.18;3.00;;;;;;;;;;5066286;28;20028;-88
2023/06/24 09:56:43;;;;;;;4.55;2.88;;;;;;;;;;5059890;28;20503;-84
2023/06/24 09:59:10;;;;;;;8.80;3.25;;;;;;;;;;5067833;28;20020;-82
2023/06/24 10:01:42;;;;;;;2.53;2.00;;;;;;;;;;5072216;28;20020;-85
2023/06/24 10:07:18;;;;;;;3.50;2.63;;;;;;;;;;5052260;28;20104;-83
2023/06/24 10:10:17;;;;;;;2.92;2.55;;;;;;;;;;5063925;28;20132;-85
2023/06/24 10:21:31;;;;;;;;;;;;;;;;;;;;;
2023/06/24 10:30:27;;;;;;;3.65;2.45;;;;;;;;;;5043908;28;20031;-85
2023/06/24 10:33:33;;;;;;;3.03;1.85;;;;;;;;;;5032401;28;20039;-87
2023/06/24 10:36:00;;;;;;;3.80;2.13;;;;;;;;;;5031244;28;20060;-85
2023/06/24 10:38:25;;;;;;;2.92;2.20;;;;;;;;;;5047547;28;20047;-84
2023/06/24 10:40:54;;;;;;;2.25;1.80;;;;;;;;;;5069815;28;20025;-82
2023/06/24 10:43:34;;;;;;;3.60;2.67;;;;;;;;;;5066732;28;20684;-84
2023/06/24 10:46:33;;;;;;;2.78;2.05;;;;;;;;;;5069217;28;20384;-83
2023/06/24 10:48:51;;;;;;;5.32;2.40;;;;;;;;;;5064667;28;20054;-85
2023/06/24 10:51:19;;;;;;;4.68;2.92;;;;;;;;;;5062204;28;20024;-84
2023/06/24 10:54:09;;;;;;;4.05;3.10;;;;;;;;;;5067808;28;20032;-84
2023/06/24 10:59:51;;;;;;;3.38;2.38;;;;;;;;;;5068085;28;20072;-84
2023/06/24 11:02:18;;;;;;;3.47;2.22;;;;;;;;;;5065589;28;20028;-84
2023/06/24 11:04:59;;;;;;;2.40;1.90;;;;;;;;;;5064130;28;20039;-86
2023/06/24 11:07:28;;;;;;;1.65;1.40;;;;;;;;;;5061639;28;20485;-84
2023/06/24 11:09:59;;;;;;;3.60;2.55;;;;;;;;;;5057404;28;20024;-86
2023/06/24 11:12:32;;;;;;;3.63;2.47;;;;;;;;;;5078977;28;20486;-84
2023/06/24 11:15:19;;;;;;;3.65;2.58;;;;;;;;;;5063347;28;20036;-85
2023/06/24 11:17:47;;;;;;;2.90;2.03;;;;;;;;;;5063957;28;20074;-84
2023/06/24 11:20:17;;;;;;;2.38;1.55;;;;;;;;;;5064969;28;20079;-84
2023/06/24 11:22:43;;;;;;;2.83;1.98;;;;;;;;;;5066116;28;20442;-83
2023/06/24 11:25:22;;;;;;;2.35;1.52;;;;;;;;;;5061660;28;20020;-83
2023/06/24 11:27:50;;;;;;;2.55;1.58;;;;;;;;;;5066808;28;20055;-84
2023/06/24 11:30:16;;;;;;;4.03;2.15;;;;;;;;;;5061614;28;20072;-83
2023/06/24 11:32:50;;;;;;;2.80;1.98;;;;;;;;;;5063478;28;20055;-86
2023/06/24 11:35:16;;;;;;;2.72;2.13;;;;;;;;;;5057173;28;20032;-84
2023/06/24 11:37:43;;;;;;;4.75;2.30;;;;;;;;;;5065839;28;20389;-84
2023/06/24 11:40:09;;;;;;;2.38;1.65;;;;;;;;;;5066631;28;20036;-85
2023/06/24 11:42:44;;;;;;;2.28;1.88;;;;;;;;;;5063205;28;20024;-84
2023/06/24 11:45:11;;;;;;;3.45;1.90;;;;;;;;;;5066693;28;20054;-84
2023/06/24 11:47:38;;;;;;;2.67;1.73;;;;;;;;;;5061663;28;20088;-83
2023/06/24 11:50:05;;;;;;;3.38;1.95;;;;;;;;;;5067423;28;20035;-85
2023/06/24 11:52:44;;;;;;;2.83;1.73;;;;;;;;;;5065494;28;20038;-83
2023/06/24 11:55:17;;;;;;;2.28;1.88;;;;;;;;;;5066434;28;20044;-83
2023/06/24 11:58:01;;;;;;;2.42;1.90;;;;;;;;;;5059314;28;20029;-83
2023/06/24 12:00:34;;;;;;;2.75;1.95;;;;;;;;;;5058111;28;20472;-83
2023/06/24 12:03:02;;;;;;;2.10;1.83;;;;;;;;;;5058026;28;20082;-83
2023/06/24 12:05:33;;;;;;;2.53;2.08;;;;;;;;;;5062456;28;20044;-82
2023/06/24 12:08:06;;;;;;;3.67;2.28;;;;;;;;;;5068129;28;20151;-84
2023/06/24 12:10:33;;;;;;;3.10;1.92;;;;;;;;;;5065783;28;20040;-83
2023/06/24 12:12:59;;;;;;;4.88;1.85;;;;;;;;;;5063596;28;20404;-86
2023/06/24 12:15:25;;;;;;;4.22;2.45;;;;;;;;;;5068825;28;20025;-82
2023/06/24 12:17:50;;;;;;;3.85;2.63;;;;;;;;;;5083899;28;20047;-82
2023/06/24 12:20:17;;;;;;;4.25;2.60;;;;;;;;;;5068255;28;20056;-82
2023/06/24 12:22:43;;;;;;;3.85;2.60;;;;;;;;;;5066069;28;20032;-83
2023/06/24 12:25:09;;;;;;;2.63;1.75;;;;;;;;;;5072329;28;20078;-83
2023/06/24 12:27:35;;;;;;;2.78;1.92;;;;;;;;;;5066998;28;20362;-84
2023/06/24 12:30:00;;;;;;;4.30;2.70;;;;;;;;;;5068417;28;20035;-83
2023/06/24 12:32:27;;;;;;;2.88;1.75;;;;;;;;;;5070940;28;20095;-83
2023/06/24 12:34:53;;;;;;;7.93;2.45;;;;;;;;;;5065850;28;20028;-82
2023/06/24 12:37:18;;;;;;;4.78;2.20;;;;;;;;;;5066049;28;20107;-82
2023/06/24 12:39:45;;;;;;;3.80;2.40;;;;;;;;;;5065253;28;20085;-82
2023/06/24 12:42:10;;;;;;;3.05;2.00;;;;;;;;;;5066322;28;20107;-85
2023/06/24 12:44:35;;;;;;;2.65;1.85;;;;;;;;;;5070105;28;20148;-82
2023/06/24 12:47:02;;;;;;;2.17;1.85;;;;;;;;;;5059214;28;20029;-82
2023/06/24 12:49:28;;;;;;;2.83;1.70;;;;;;;;;;5069144;28;20036;-83
2023/06/24 12:51:53;;;;;;;3.22;2.40;;;;;;;;;;5062139;28;20033;-81
2023/06/24 12:54:19;;;;;;;3.22;2.13;;;;;;;;;;5067104;28;20024;-82
2023/06/24 12:56:44;;;;;;;4.03;2.08;;;;;;;;;;5066656;28;20036;-85
2023/06/24 12:59:09;;;;;;;1.73;1.58;;;;;;;;;;5067294;28;20111;-84
2023/06/24 13:01:35;;;;;;;3.00;1.85;;;;;;;;;;5064035;28;20067;-84
2023/06/24 13:04:00;;;;;;;2.78;2.03;;;;;;;;;;5063573;28;20056;-85
2023/06/24 13:06:26;;;;;;;3.30;2.00;;;;;;;;;;5062862;28;20031;-84
2023/06/24 13:08:51;;;;;;;2.83;2.15;;;;;;;;;;5063109;28;20028;-83
2023/06/24 13:11:18;;;;;;;2.20;1.70;;;;;;;;;;5059295;28;20021;-83
2023/06/24 13:13:43;;;;;;;2.60;1.90;;;;;;;;;;5061247;28;20107;-84
2023/06/24 13:16:09;;;;;;;2.85;1.98;;;;;;;;;;5063718;28;20142;-83
2023/06/24 13:18:35;;;;;;;2.40;1.77;;;;;;;;;;5064774;28;20365;-85
2023/06/24 13:21:00;;;;;;;2.20;1.85;;;;;;;;;;5068000;28;20085;-83
2023/06/24 13:23:26;;;;;;;3.00;2.13;;;;;;;;;;5063217;28;20385;-83
2023/06/24 13:25:51;;;;;;;2.30;1.63;;;;;;;;;;5065399;28;20381;-84
2023/06/24 13:28:16;;;;;;;2.25;1.83;;;;;;;;;;5063599;28;20460;-84
2023/06/24 13:30:42;;;;;;;2.20;1.70;;;;;;;;;;5059635;28;20036;-84
2023/06/24 13:33:08;;;;;;;2.53;1.73;;;;;;;;;;5065050;28;20020;-85
2023/06/24 13:35:33;;;;;;;4.10;2.38;;;;;;;;;;5062430;28;20036;-82
2023/06/24 13:37:59;;;;;;;2.75;2.33;;;;;;;;;;5061371;28;20052;-82
2023/06/24 13:40:24;;;;;;;3.60;2.08;;;;;;;;;;5061273;28;20048;-84
2023/06/24 13:42:50;;;;;;;1.95;1.70;;;;;;;;;;5063072;28;20020;-80
2023/06/24 13:45:16;;;;;;;1.42;1.02;;;;;;;;;;5063003;28;20028;-83
2023/06/24 13:47:41;;;;;;;2.80;1.67;;;;;;;;;;5064002;28;20038;-82
2023/06/24 13:50:07;;;;;;;1.88;1.48;;;;;;;;;;5061988;28;20028;-83
2023/06/24 13:52:33;;;;;;;2.50;1.50;;;;;;;;;;5062960;28;20055;-83
2023/06/24 13:54:58;;;;;;;2.05;1.40;;;;;;;;;;5065717;28;20151;-83
2023/06/24 13:57:24;;;;;;;4.13;2.22;;;;;;;;;;5065493;28;20044;-82
2023/06/24 13:59:49;;;;;;;2.08;1.35;;;;;;;;;;5065322;28;20039;-83
2023/06/24 14:02:18;;;;;;;3.63;1.80;;;;;;;;;;5067590;28;20098;-85
2023/06/24 14:04:44;;;;;;;2.45;1.60;;;;;;;;;;5065077;28;20062;-82
2023/06/24 14:07:10;;;;;;;2.63;1.33;;;;;;;;;;5066639;28;20480;-81
2023/06/24 14:09:37;;;;;;;2.75;1.50;;;;;;;;;;5062861;28;20028;-83
2023/06/24 14:12:03;;;;;;;3.72;1.98;;;;;;;;;;5069255;28;20399;-81
2023/06/24 14:14:29;;;;;;;3.15;1.60;;;;;;;;;;5064474;28;20123;-82
2023/06/24 14:16:54;;;;;;;4.88;1.58;;;;;;;;;;5065918;28;20040;-82
2023/06/24 14:19:19;;;;;;;2.67;1.55;;;;;;;;;;5064296;28;20107;-81
2023/06/24 14:21:45;;;;;;;2.83;1.42;;;;;;;;;;5063632;28;20140;-80
2023/06/24 14:24:11;;;;;;;2.47;1.60;;;;;;;;;;5066257;28;20107;-82
2023/06/24 14:26:37;;;;;;;3.70;2.45;;;;;;;;;;5060387;28;20032;-83
2023/06/24 14:29:02;;;;;;;3.08;2.22;;;;;;;;;;5064009;28;20098;-85
2023/06/24 14:31:28;;;;;;;4.20;2.05;;;;;;;;;;5064147;28;20032;-85
2023/06/24 14:33:53;;;;;;;5.03;2.20;;;;;;;;;;5060009;28;20485;-84
2023/06/24 14:36:19;;;;;;;2.80;1.70;;;;;;;;;;5068497;28;20461;-84
2023/06/24 14:38:44;;;;;;;3.17;1.92;;;;;;;;;;5063893;28;20025;-82
2023/06/24 14:41:10;;;;;;;2.83;1.95;;;;;;;;;;5062020;28;20036;-85
2023/06/24 14:43:36;;;;;;;3.55;2.30;;;;;;;;;;5057835;28;20055;-85
2023/06/24 14:46:02;;;;;;;2.78;1.70;;;;;;;;;;5056689;28;20024;-85
2023/06/24 14:48:27;;;;;;;2.80;2.13;;;;;;;;;;5060257;28;20024;-86
2023/06/24 14:50:53;;;;;;;2.25;1.65;;;;;;;;;;5061485;28;20047;-82
2023/06/24 14:53:19;;;;;;;3.83;1.88;;;;;;;;;;5063285;28;20032;-83
2023/06/24 14:55:45;;;;;;;4.10;2.50;;;;;;;;;;5066894;28;20055;-83
2023/06/24 14:58:10;;;;;;;3.72;2.20;;;;;;;;;;5057936;28;20064;-84
2023/06/24 15:00:36;;;;;;;6.18;3.63;;;;;;;;;;5066340;28;20028;-84
2023/06/24 15:03:01;;;;;;;5.57;2.83;;;;;;;;;;5062502;28;20054;-83
2023/06/24 15:05:27;;;;;;;2.88;1.50;;;;;;;;;;5062876;28;20079;-82
2023/06/24 15:07:52;;;;;;;4.72;2.55;;;;;;;;;;5057592;28;20039;-81